createdAt,value
2019-04-11T00:02:06.750Z,79.49
2019-04-11T00:04:42.317Z,79.39
2019-04-11T00:07:33.361Z,79.08
2019-04-11T00:10:06.310Z,79.20
2019-04-11T00:12:39.154Z,78.85
2019-04-11T00:15:12.631Z,79.10
2019-04-11T00:17:48.128Z,78.58
2019-04-11T00:20:22.192Z,77.81
2019-04-11T00:22:57.721Z,77.26
2019-04-11T00:25:29.712Z,76.60
2019-04-11T00:28:02.115Z,75.40
2019-04-11T00:30:34.392Z,75.56
2019-04-11T00:33:09.831Z,74.96
2019-04-11T00:35:42.457Z,74.83
2019-04-11T00:38:14.410Z,74.59
2019-04-11T00:40:46.445Z,73.80
2019-04-11T00:43:30.595Z,72.75
2019-04-11T00:45:53.982Z,71.87
2019-04-11T00:48:27.999Z,71.79
2019-04-11T00:51:01.996Z,71.46
2019-04-11T00:53:34.058Z,71.35
2019-04-11T00:56:08.156Z,70.77
2019-04-11T00:58:43.574Z,71.54
2019-04-11T01:01:17.747Z,73.02
2019-04-11T01:03:49.581Z,73.61
2019-04-11T01:06:21.031Z,74.04
2019-04-11T01:08:52.385Z,74.48
2019-04-11T01:11:27.861Z,74.23
2019-04-11T01:14:01.580Z,74.29
2019-04-11T01:16:52.713Z,75.77
2019-04-11T01:19:26.847Z,75.95
2019-04-11T01:22:01.266Z,74.72
2019-04-11T01:24:33.645Z,74.04
2019-04-11T01:27:07.762Z,73.48
2019-04-11T01:33:06.642Z,73.36
2019-04-11T01:35:38.133Z,73.65
2019-04-11T01:38:12.386Z,73.54
2019-04-11T01:40:46.105Z,73.83
2019-04-11T01:43:18.544Z,74.80
2019-04-11T01:45:52.008Z,74.66
2019-04-11T01:48:36.955Z,74.85
2019-04-11T01:51:08.222Z,73.39
2019-04-11T01:53:40.989Z,73.08
2019-04-11T01:56:14.863Z,73.60
2019-04-11T01:58:48.953Z,74.16
2019-04-11T02:01:28.497Z,75.52
2019-04-11T02:04:21.600Z,75.68
2019-04-11T02:06:54.586Z,75.22
2019-04-11T02:09:26.244Z,74.00
2019-04-11T02:11:58.212Z,73.27
2019-04-11T02:14:33.410Z,73.59
2019-04-11T02:17:06.881Z,71.31
2019-04-11T02:19:38.473Z,71.22
2019-04-11T02:22:28.771Z,70.78
2019-04-11T02:25:28.254Z,70.94
2019-04-11T02:28:04.345Z,70.65
2019-04-11T02:30:44.357Z,70.60
2019-04-11T02:33:18.383Z,70.77
2019-04-11T02:35:52.121Z,71.19
2019-04-11T02:38:24.688Z,71.92
2019-04-11T02:40:58.565Z,73.30
2019-04-11T02:43:31.808Z,72.46
2019-04-11T02:46:13.039Z,72.50
2019-04-11T02:48:38.060Z,73.44
2019-04-11T02:51:12.251Z,73.86
2019-04-11T02:53:47.139Z,73.91
2019-04-11T02:56:21.299Z,72.84
2019-04-11T02:58:57.022Z,72.31
2019-04-11T03:01:29.177Z,71.24
2019-04-11T03:04:01.905Z,70.48
2019-04-11T03:06:36.322Z,70.35
2019-04-11T03:09:07.895Z,71.82
2019-04-11T03:11:40.893Z,71.19
2019-04-11T03:14:14.601Z,70.75
2019-04-11T03:16:57.309Z,69.24
2019-04-11T03:19:42.352Z,69.21
2019-04-11T03:21:59.379Z,69.61
2019-04-11T03:24:35.242Z,69.51
2019-04-11T03:27:09.300Z,69.35
2019-04-11T03:29:43.111Z,68.36
2019-04-11T03:33:01.270Z,68.52
2019-04-11T03:35:45.711Z,69.16
2019-04-11T03:37:53.560Z,67.99
2019-04-11T03:40:22.669Z,68.31
2019-04-11T03:42:50.532Z,68.31
2019-04-11T03:45:34.761Z,68.16
2019-04-11T03:48:04.313Z,68.25
2019-04-11T03:50:23.888Z,68.83
2019-04-11T03:52:56.093Z,68.86
2019-04-11T03:55:30.757Z,68.50
2019-04-11T03:58:05.993Z,69.46
2019-04-11T04:00:43.175Z,69.49
2019-04-11T04:03:14.169Z,71.02
2019-04-11T04:05:48.647Z,71.66
2019-04-11T04:08:24.593Z,71.73
2019-04-11T04:11:12.329Z,69.89
2019-04-11T04:13:49.838Z,70.04
2019-04-11T04:16:40.915Z,70.30
2019-04-11T04:19:27.077Z,70.77
2019-04-11T04:22:13.407Z,70.03
2019-04-11T04:24:46.857Z,69.04
2019-04-11T04:27:23.185Z,69.41
2019-04-11T04:29:58.527Z,69.50
2019-04-11T04:32:30.427Z,69.39
2019-04-11T04:35:07.248Z,69.96
2019-04-11T04:37:40.883Z,70.63
2019-04-11T04:40:31.230Z,71.35
2019-04-11T04:42:52.755Z,71.38
2019-04-11T04:45:23.880Z,71.03
2019-04-11T04:48:04.595Z,70.04
2019-04-11T04:50:34.324Z,69.34
2019-04-11T04:53:07.429Z,68.24
2019-04-11T04:55:43.412Z,68.92
2019-04-11T04:58:17.802Z,69.29
2019-04-11T05:00:53.650Z,69.16
2019-04-11T05:03:26.576Z,68.72
2019-04-11T05:06:01.216Z,70.02
2019-04-11T05:08:35.296Z,67.13
2019-04-11T05:11:09.466Z,68.52
2019-04-11T05:13:44.704Z,68.48
2019-04-11T05:16:17.892Z,67.64
2019-04-11T05:18:50.582Z,67.72
2019-04-11T05:21:23.263Z,67.18
2019-04-11T05:23:57.058Z,66.98
2019-04-11T05:26:28.800Z,67.48
2019-04-11T05:29:00.620Z,67.35
2019-04-11T05:31:36.582Z,67.11
2019-04-11T05:34:09.962Z,67.13
2019-04-11T05:36:41.356Z,66.90
2019-04-11T05:39:15.516Z,67.42
2019-04-11T05:41:48.726Z,67.89
2019-04-11T05:44:22.888Z,67.57
2019-04-11T05:47:00.700Z,67.58
2019-04-11T05:49:39.760Z,67.69
2019-04-11T05:52:12.183Z,66.96
2019-04-11T05:54:49.287Z,66.70
2019-04-11T05:57:26.919Z,66.60
2019-04-11T05:59:57.786Z,66.95
2019-04-11T06:02:37.424Z,67.13
2019-04-11T06:05:32.424Z,66.62
2019-04-11T06:08:06.620Z,66.79
2019-04-11T06:11:02.897Z,66.62
2019-04-11T06:13:42.778Z,66.95
2019-04-11T06:16:16.729Z,67.32
2019-04-11T06:19:06.044Z,67.02
2019-04-11T06:21:50.495Z,67.54
2019-04-11T06:24:35.023Z,68.02
2019-04-11T06:27:14.249Z,67.01
2019-04-11T06:29:59.215Z,66.71
2019-04-11T06:32:48.870Z,66.24
2019-04-11T06:35:30.325Z,65.88
2019-04-11T06:38:21.298Z,66.78
2019-04-11T06:41:02.045Z,65.63
2019-04-11T06:43:46.519Z,66.43
2019-04-11T06:46:48.848Z,66.79
2019-04-11T06:49:34.116Z,67.35
2019-04-11T06:52:08.530Z,66.71
2019-04-11T06:55:10.886Z,66.00
2019-04-11T06:57:44.286Z,65.24
2019-04-11T07:00:16.941Z,64.23
2019-04-11T07:03:01.283Z,65.43
2019-04-11T07:05:35.449Z,65.20
2019-04-11T07:08:09.549Z,64.27
2019-04-11T07:10:48.901Z,64.49
2019-04-11T07:13:27.043Z,63.66
2019-04-11T07:16:04.711Z,64.56
2019-04-11T07:18:57.027Z,64.02
2019-04-11T07:21:35.331Z,64.23
2019-04-11T07:24:28.268Z,64.69
2019-04-11T07:27:04.668Z,65.67
2019-04-11T07:29:56.549Z,65.24
2019-04-11T07:32:29.880Z,64.78
2019-04-11T07:35:30.197Z,64.56
2019-04-11T07:38:02.874Z,64.42
2019-04-11T07:40:54.635Z,64.99
2019-04-11T07:43:31.550Z,65.26
2019-04-11T07:46:25.693Z,64.66
2019-04-11T07:49:04.339Z,64.86
2019-04-11T07:51:50.818Z,64.40
2019-04-11T07:54:26.056Z,64.57
2019-04-11T07:57:22.771Z,65.15
2019-04-11T08:00:12.800Z,64.65
2019-04-11T08:03:10.410Z,65.45
2019-04-11T08:06:10.908Z,65.99
2019-04-11T08:09:05.094Z,65.10
2019-04-11T08:11:46.215Z,62.54
2019-04-11T08:14:34.845Z,63.58
2019-04-11T08:17:11.484Z,64.05
2019-04-11T08:20:02.911Z,63.55
2019-04-11T08:22:43.991Z,63.79
2019-04-11T08:25:25.028Z,64.20
2019-04-11T08:28:05.888Z,64.19
2019-04-11T08:30:55.213Z,64.12
2019-04-11T08:33:29.307Z,64.63
2019-04-11T08:36:24.037Z,64.44
2019-04-11T08:38:57.030Z,64.78
2019-04-11T08:41:42.020Z,65.00
2019-04-11T08:44:34.686Z,65.11
2019-04-11T08:47:16.265Z,64.90
2019-04-11T08:49:52.231Z,64.72
2019-04-11T08:52:32.133Z,65.03
2019-04-11T08:55:08.215Z,64.44
2019-04-11T08:57:42.654Z,61.64
2019-04-11T09:00:55.687Z,62.89
2019-04-11T09:03:59.304Z,63.72
2019-04-11T09:06:24.907Z,63.38
2019-04-11T09:09:20.910Z,64.04
2019-04-11T09:11:58.246Z,63.16
2019-04-11T09:14:50.572Z,62.75
2019-04-11T09:17:55.139Z,62.91
2019-04-11T09:20:35.946Z,62.48
2019-04-11T09:23:09.428Z,62.12
2019-04-11T09:26:20.470Z,62.59
2019-04-11T09:28:55.739Z,60.48
2019-04-11T09:31:45.749Z,60.89
2019-04-11T09:34:52.297Z,62.30
2019-04-11T09:37:37.905Z,61.37
2019-04-11T09:40:29.911Z,61.38
2019-04-11T09:43:12.415Z,61.65
2019-04-11T09:45:57.714Z,60.81
2019-04-11T09:49:04.961Z,61.18
2019-04-11T09:51:53.121Z,60.52
2019-04-11T09:54:44.276Z,61.60
2019-04-11T09:57:37.164Z,61.02
2019-04-11T10:00:19.124Z,59.70
2019-04-11T10:02:56.149Z,59.39
2019-04-11T10:05:46.751Z,60.07
2019-04-11T10:08:35.038Z,60.26
2019-04-11T10:11:46.321Z,61.23
2019-04-11T10:14:19.661Z,61.67
2019-04-11T10:17:10.695Z,61.12
2019-04-11T10:19:44.905Z,60.24
2019-04-11T10:22:45.988Z,59.94
2019-04-11T10:25:25.326Z,60.09
2019-04-11T10:28:22.781Z,59.49
2019-04-11T10:31:04.363Z,59.39
2019-04-11T10:33:55.459Z,60.17
2019-04-11T10:36:53.983Z,59.81
2019-04-11T10:39:51.284Z,60.46
2019-04-11T10:42:26.674Z,60.82
2019-04-11T10:45:31.030Z,60.61
2019-04-11T10:48:05.487Z,60.61
2019-04-11T10:51:00.421Z,60.04
2019-04-11T10:53:35.287Z,60.76
2019-04-11T10:56:26.367Z,60.36
2019-04-11T10:59:01.682Z,59.70
2019-04-11T11:01:50.995Z,59.84
2019-04-11T11:04:32.620Z,59.90
2019-04-11T11:07:09.892Z,59.58
2019-04-11T11:09:48.466Z,60.58
2019-04-11T11:12:29.619Z,60.73
2019-04-11T11:15:20.801Z,61.66
2019-04-11T11:18:38.170Z,61.58
2019-04-11T11:21:00.286Z,61.04
2019-04-11T11:23:49.193Z,60.95
2019-04-11T11:26:29.646Z,61.35
2019-04-11T11:29:26.637Z,61.51
2019-04-11T11:32:05.132Z,61.47
2019-04-11T11:34:55.019Z,61.48
2019-04-11T11:37:45.243Z,61.57
2019-04-11T11:40:38.374Z,60.60
2019-04-11T11:43:19.412Z,60.49
2019-04-11T11:46:14.200Z,60.49
2019-04-11T11:48:52.273Z,60.77
2019-04-11T11:51:41.499Z,61.09
2019-04-11T11:54:20.113Z,61.23
2019-04-11T11:56:56.551Z,60.77
2019-04-11T11:59:40.599Z,60.88
2019-04-11T12:02:23.767Z,61.44
2019-04-11T12:05:07.891Z,61.22
2019-04-11T12:07:43.088Z,60.56
2019-04-11T12:10:28.666Z,60.41
2019-04-11T12:13:20.340Z,60.70
2019-04-11T12:16:08.106Z,60.42
2019-04-11T12:19:04.918Z,61.01
2019-04-11T12:21:37.109Z,60.39
2019-04-11T12:24:32.405Z,61.08
2019-04-11T12:27:26.869Z,61.13
2019-04-11T12:30:23.463Z,61.38
2019-04-11T12:33:10.961Z,61.12
2019-04-11T12:36:08.218Z,61.04
2019-04-11T12:39:05.721Z,60.13
2019-04-11T12:41:52.987Z,60.40
2019-04-11T12:44:50.175Z,59.91
2019-04-11T12:47:38.295Z,59.32
2019-04-11T12:50:31.591Z,59.66
2019-04-11T12:53:24.343Z,59.91
2019-04-11T12:56:21.636Z,59.85
2019-04-11T12:59:08.471Z,60.01
2019-04-11T13:01:59.612Z,59.93
2019-04-11T13:04:33.195Z,59.80
2019-04-11T13:07:28.630Z,59.98
2019-04-11T13:10:21.234Z,60.24
2019-04-11T13:13:20.008Z,60.08
2019-04-11T13:16:19.720Z,60.26
2019-04-11T13:19:20.038Z,60.48
2019-04-11T13:21:58.098Z,60.47
2019-04-11T13:25:00.475Z,60.03
2019-04-11T13:27:47.765Z,60.10
2019-04-11T13:30:38.769Z,59.46
2019-04-11T13:33:23.382Z,59.25
2019-04-11T13:36:13.385Z,59.25
2019-04-11T13:38:46.806Z,59.39
2019-04-11T13:41:56.004Z,59.07
2019-04-11T13:44:31.784Z,59.86
2019-04-11T13:47:23.829Z,59.27
2019-04-11T13:49:57.637Z,59.92
2019-04-11T13:52:49.218Z,60.17
2019-04-11T13:55:27.708Z,59.73
2019-04-11T13:58:27.685Z,58.75
2019-04-11T14:01:00.716Z,59.42
2019-04-11T14:03:54.211Z,59.94
2019-04-11T14:06:37.305Z,59.83
2019-04-11T14:09:38.236Z,59.71
2019-04-11T14:12:13.490Z,59.00
2019-04-11T14:14:58.373Z,60.34
2019-04-11T14:17:59.040Z,59.30
2019-04-11T14:20:36.144Z,58.62
2019-04-11T14:23:28.738Z,60.03
2019-04-11T14:26:18.292Z,59.92
2019-04-11T14:28:58.122Z,59.00
2019-04-11T14:31:53.859Z,59.22
2019-04-11T14:35:04.492Z,59.21
2019-04-11T14:37:44.474Z,59.63
2019-04-11T14:40:35.160Z,58.58
2019-04-11T14:43:33.431Z,59.41
2019-04-11T14:46:23.611Z,59.96
2019-04-11T14:49:05.618Z,58.95
2019-04-11T14:51:58.432Z,59.29
2019-04-11T14:54:41.867Z,58.45
2019-04-11T14:57:22.747Z,57.97
2019-04-11T15:00:15.652Z,58.81
2019-04-11T15:02:58.518Z,58.89
2019-04-11T15:05:55.809Z,59.09
2019-04-11T15:08:42.545Z,59.15
2019-04-11T15:11:40.156Z,59.03
2019-04-11T15:14:35.618Z,58.66
2019-04-11T15:17:18.170Z,58.87
2019-04-11T15:20:28.035Z,59.23
2019-04-11T15:23:11.319Z,58.12
2019-04-11T15:26:10.508Z,58.27
2019-04-11T15:28:54.005Z,58.19
2019-04-11T15:31:52.728Z,57.87
2019-04-11T15:34:39.186Z,59.31
2019-04-11T15:37:45.576Z,59.02
2019-04-11T15:40:48.699Z,58.27
2019-04-11T15:43:42.045Z,58.21
2019-04-11T15:46:38.586Z,58.04
2019-04-11T15:49:31.180Z,58.63
2019-04-11T15:52:07.011Z,58.87
2019-04-11T15:54:57.956Z,58.92
2019-04-11T15:57:36.089Z,58.69
2019-04-11T16:00:29.037Z,58.28
2019-04-11T16:03:08.283Z,59.15
2019-04-11T16:06:01.687Z,58.76
2019-04-11T16:08:44.827Z,58.48
2019-04-11T16:11:51.883Z,59.41
2019-04-11T16:14:38.776Z,59.32
2019-04-11T16:17:28.951Z,58.88
2019-04-11T16:20:22.257Z,58.76
2019-04-11T16:23:15.029Z,59.20
2019-04-11T16:25:53.624Z,59.37
2019-04-11T16:28:44.478Z,58.92
2019-04-11T16:31:16.339Z,59.02
2019-04-11T16:34:11.406Z,59.49
2019-04-11T16:36:52.180Z,59.37
2019-04-11T16:39:50.294Z,59.46
2019-04-11T16:42:31.344Z,59.58
2019-04-11T16:45:24.687Z,60.90
2019-04-11T16:48:02.761Z,60.13
2019-04-11T16:50:37.665Z,60.03
2019-04-11T16:53:14.111Z,60.15
2019-04-11T16:55:49.612Z,60.03
2019-04-11T16:58:23.143Z,60.31
2019-04-11T17:00:58.266Z,60.25
2019-04-11T17:03:32.452Z,60.62
2019-04-11T17:06:30.109Z,60.78
2019-04-11T17:09:08.936Z,60.65
2019-04-11T17:11:42.949Z,61.19
2019-04-11T17:14:15.118Z,62.13
2019-04-11T17:16:47.485Z,62.26
2019-04-11T17:19:23.638Z,62.59
2019-04-11T17:21:55.263Z,64.37
2019-04-11T17:24:27.418Z,65.27
2019-04-11T17:26:59.199Z,66.21
2019-04-11T17:29:30.821Z,66.53
2019-04-11T17:32:02.665Z,67.12
2019-04-11T17:34:34.937Z,68.49
2019-04-11T17:37:09.045Z,68.29
2019-04-11T17:39:40.613Z,68.45
2019-04-11T17:42:14.069Z,69.04
2019-04-11T17:44:47.408Z,69.22
2019-04-11T17:47:18.654Z,69.95
2019-04-11T17:49:50.153Z,70.40
2019-04-11T17:52:22.026Z,70.07
2019-04-11T17:54:54.211Z,70.22
2019-04-11T17:57:27.877Z,70.70
2019-04-11T17:59:59.819Z,70.53
2019-04-11T18:02:32.237Z,70.60
2019-04-11T18:05:03.502Z,69.84
2019-04-11T18:07:35.310Z,69.48
2019-04-11T18:10:08.684Z,69.30
2019-04-11T18:12:42.478Z,68.74
2019-04-11T18:15:13.978Z,68.72
2019-04-11T18:17:45.217Z,68.21
2019-04-11T18:20:16.723Z,68.60
2019-04-11T18:22:50.350Z,68.32
2019-04-11T18:25:22.822Z,68.09
2019-04-11T18:27:54.698Z,68.05
2019-04-11T18:30:27.531Z,68.17
2019-04-11T18:33:02.883Z,68.16
2019-04-11T18:35:35.485Z,67.24
2019-04-11T18:38:07.261Z,67.07
2019-04-11T18:40:40.246Z,67.64
2019-04-11T18:43:16.000Z,68.76
2019-04-11T18:45:48.072Z,69.82
2019-04-11T18:48:19.564Z,69.70
2019-04-11T18:50:53.179Z,69.37
2019-04-11T18:53:25.990Z,69.23
2019-04-11T18:55:57.744Z,69.61
2019-04-11T18:58:33.705Z,69.75
2019-04-11T19:01:08.874Z,70.10
2019-04-11T19:03:41.120Z,69.59
2019-04-11T19:06:13.805Z,69.47
2019-04-11T19:08:45.166Z,69.55
2019-04-11T19:11:16.651Z,69.85
2019-04-11T19:13:48.008Z,69.53
2019-04-11T19:16:20.011Z,69.92
2019-04-11T19:18:52.050Z,70.07
2019-04-11T19:21:23.432Z,70.24
2019-04-11T19:23:55.152Z,71.72
2019-04-11T19:26:26.832Z,71.10
2019-04-11T19:29:00.210Z,70.76
2019-04-11T19:31:33.131Z,70.54
2019-04-11T19:34:08.619Z,70.38
2019-04-11T19:36:39.923Z,71.68
2019-04-11T19:39:14.654Z,71.89
2019-04-11T19:41:48.124Z,71.07
2019-04-11T19:44:20.889Z,71.13
2019-04-11T19:46:52.125Z,71.60
2019-04-11T19:49:24.078Z,71.65
2019-04-11T19:51:58.686Z,71.29
2019-04-11T19:54:32.751Z,72.80
2019-04-11T19:57:05.750Z,72.17
2019-04-11T19:59:39.132Z,72.15
2019-04-11T20:02:11.961Z,71.99
2019-04-11T20:05:01.667Z,71.82
2019-04-11T20:07:50.919Z,71.98
2019-04-11T20:10:40.109Z,71.18
2019-04-11T20:13:32.206Z,71.08
2019-04-11T20:16:21.125Z,71.37
2019-04-11T20:19:11.188Z,71.83
2019-04-11T20:22:00.392Z,71.57
2019-04-11T20:24:49.844Z,72.47
2019-04-11T20:27:39.349Z,72.36
2019-04-11T20:30:29.220Z,72.44
2019-04-11T20:33:27.069Z,72.43
2019-04-11T20:36:11.277Z,72.53
2019-04-11T20:39:01.157Z,72.25
2019-04-11T20:41:53.210Z,72.14
2019-04-11T20:44:42.738Z,71.83
2019-04-11T20:47:33.513Z,70.96
2019-04-11T20:50:22.692Z,70.32
2019-04-11T20:53:13.324Z,70.15
2019-04-11T20:56:03.887Z,70.07
2019-04-11T20:58:53.436Z,69.22
2019-04-11T21:01:43.288Z,68.64
2019-04-11T21:04:33.137Z,67.93
2019-04-11T21:07:22.876Z,64.96
2019-04-11T21:10:12.764Z,65.47
2019-04-11T21:13:06.817Z,62.53
2019-04-11T21:15:54.446Z,62.51
2019-04-11T21:18:43.721Z,61.64
2019-04-11T21:21:33.418Z,60.87
2019-04-11T21:24:22.930Z,60.72
2019-04-11T21:27:13.319Z,60.97
2019-04-11T21:30:03.487Z,60.88
2019-04-11T21:32:54.141Z,60.83
2019-04-11T21:35:43.855Z,61.22
2019-04-11T21:38:34.052Z,61.52
2019-04-11T21:41:23.538Z,60.78
2019-04-11T21:44:13.010Z,60.64
2019-04-11T21:47:02.887Z,60.61
2019-04-11T21:49:52.073Z,59.39
2019-04-11T21:52:43.682Z,60.88
2019-04-11T21:55:33.121Z,61.11
2019-04-11T21:58:23.188Z,60.56
2019-04-11T22:01:14.524Z,60.33
2019-04-11T22:04:04.327Z,60.97
2019-04-11T22:06:53.525Z,61.21
2019-04-11T22:09:43.487Z,61.66
2019-04-11T22:12:33.022Z,61.47
2019-04-11T22:15:23.076Z,60.41
2019-04-11T22:18:15.867Z,59.92
2019-04-11T22:21:04.016Z,60.97
2019-04-11T22:23:53.278Z,61.08
2019-04-11T22:26:43.203Z,61.49
2019-04-11T22:29:32.736Z,61.06
2019-04-11T22:32:23.794Z,61.65
2019-04-11T22:35:13.234Z,61.64
2019-04-11T22:38:03.239Z,60.65
2019-04-11T22:40:53.162Z,60.71
2019-04-11T22:43:43.249Z,60.57
2019-04-11T22:46:32.692Z,61.03
2019-04-11T22:49:22.600Z,61.42
2019-04-11T22:52:12.486Z,61.42
2019-04-11T22:55:02.044Z,61.35
2019-04-11T22:57:51.701Z,61.16
2019-04-11T23:00:44.895Z,60.90
2019-04-11T23:03:47.565Z,61.27
2019-04-11T23:06:37.286Z,60.90
2019-04-11T23:09:27.357Z,61.12
2019-04-11T23:12:16.651Z,61.23
2019-04-11T23:15:07.550Z,61.49
2019-04-11T23:17:58.422Z,61.46
2019-04-11T23:20:47.641Z,61.16
2019-04-11T23:23:37.579Z,61.15
2019-04-11T23:26:26.915Z,60.98
2019-04-11T23:29:16.692Z,61.32
2019-04-11T23:32:06.338Z,61.22
2019-04-11T23:34:55.720Z,61.49
2019-04-11T23:37:51.975Z,61.73
2019-04-11T23:40:41.282Z,61.39
2019-04-11T23:43:31.360Z,61.35
2019-04-11T23:46:21.457Z,61.78
2019-04-11T23:49:11.275Z,61.46
2019-04-11T23:52:00.458Z,61.89
2019-04-11T23:54:50.113Z,62.14
2019-04-11T23:57:39.875Z,62.04
